sensor_id;sensor_type;location;lat;lon;timestamp;temperature;humidity
17619;DHT22;8928;51.678;6.074;2023-02-11T00:01:25;6.40;99.90
17619;DHT22;8928;51.678;6.074;2023-02-11T00:04:13;6.40;99.90
17619;DHT22;8928;51.678;6.074;2023-02-11T00:07:00;6.50;99.90
17619;DHT22;8928;51.678;6.074;2023-02-11T00:09:48;6.40;99.90
17619;DHT22;8928;51.678;6.074;2023-02-11T00:12:36;6.40;99.90
17619;DHT22;8928;51.678;6.074;2023-02-11T00:15:23;6.50;99.90
17619;DHT22;8928;51.678;6.074;2023-02-11T00:18:10;6.40;99.90
17619;DHT22;8928;51.678;6.074;2023-02-11T00:20:57;6.40;99.90
17619;DHT22;8928;51.678;6.074;2023-02-11T00:23:44;6.40;99.90
17619;DHT22;8928;51.678;6.074;2023-02-11T00:26:34;6.40;99.90
17619;DHT22;8928;51.678;6.074;2023-02-11T00:29:21;6.40;99.90
17619;DHT22;8928;51.678;6.074;2023-02-11T00:32:09;6.50;99.90
17619;DHT22;8928;51.678;6.074;2023-02-11T00:34:56;6.40;99.90
17619;DHT22;8928;51.678;6.074;2023-02-11T00:37:43;6.40;99.90
17619;DHT22;8928;51.678;6.074;2023-02-11T00:40:30;6.40;99.90
17619;DHT22;8928;51.678;6.074;2023-02-11T00:43:18;6.40;99.90
17619;DHT22;8928;51.678;6.074;2023-02-11T00:46:06;6.40;99.90
17619;DHT22;8928;51.678;6.074;2023-02-11T00:48:53;6.40;99.90
17619;DHT22;8928;51.678;6.074;2023-02-11T00:51:42;6.40;99.90
17619;DHT22;8928;51.678;6.074;2023-02-11T00:54:29;6.40;99.90
17619;DHT22;8928;51.678;6.074;2023-02-11T00:57:16;6.40;99.90
17619;DHT22;8928;51.678;6.074;2023-02-11T01:00:05;6.40;99.90
17619;DHT22;8928;51.678;6.074;2023-02-11T01:02:53;6.40;99.90
17619;DHT22;8928;51.678;6.074;2023-02-11T01:05:40;6.40;99.90
17619;DHT22;8928;51.678;6.074;2023-02-11T01:08:27;6.40;99.90
17619;DHT22;8928;51.678;6.074;2023-02-11T01:11:17;6.40;99.90
17619;DHT22;8928;51.678;6.074;2023-02-11T01:14:04;6.40;99.90
17619;DHT22;8928;51.678;6.074;2023-02-11T01:16:52;6.40;99.90
17619;DHT22;8928;51.678;6.074;2023-02-11T01:19:40;6.30;99.90
17619;DHT22;8928;51.678;6.074;2023-02-11T01:22:27;6.40;99.90
17619;DHT22;8928;51.678;6.074;2023-02-11T01:25:14;6.30;99.90
17619;DHT22;8928;51.678;6.074;2023-02-11T01:28:01;6.40;99.90
17619;DHT22;8928;51.678;6.074;2023-02-11T01:30:49;6.40;99.90
17619;DHT22;8928;51.678;6.074;2023-02-11T01:33:37;6.30;99.90
17619;DHT22;8928;51.678;6.074;2023-02-11T01:36:24;6.40;99.90
17619;DHT22;8928;51.678;6.074;2023-02-11T01:39:11;6.30;99.90
17619;DHT22;8928;51.678;6.074;2023-02-11T01:41:58;6.30;99.90
17619;DHT22;8928;51.678;6.074;2023-02-11T01:44:48;6.30;99.90
17619;DHT22;8928;51.678;6.074;2023-02-11T01:47:36;6.30;99.90
17619;DHT22;8928;51.678;6.074;2023-02-11T01:50:24;6.30;99.90
17619;DHT22;8928;51.678;6.074;2023-02-11T01:53:11;6.30;99.90
17619;DHT22;8928;51.678;6.074;2023-02-11T01:56:17;6.20;99.90
17619;DHT22;8928;51.678;6.074;2023-02-11T01:59:27;6.20;99.90
17619;DHT22;8928;51.678;6.074;2023-02-11T02:02:18;6.20;99.90
17619;DHT22;8928;51.678;6.074;2023-02-11T02:05:14;6.20;99.90
17619;DHT22;8928;51.678;6.074;2023-02-11T02:08:10;6.20;99.90
17619;DHT22;8928;51.678;6.074;2023-02-11T02:11:00;6.10;99.90
17619;DHT22;8928;51.678;6.074;2023-02-11T02:13:48;6.10;99.90
17619;DHT22;8928;51.678;6.074;2023-02-11T02:16:36;6.10;99.90
17619;DHT22;8928;51.678;6.074;2023-02-11T02:19:46;6.10;99.90
17619;DHT22;8928;51.678;6.074;2023-02-11T02:23:15;6.20;99.90
17619;DHT22;8928;51.678;6.074;2023-02-11T02:26:43;6.20;99.90
17619;DHT22;8928;51.678;6.074;2023-02-11T02:30:05;6.20;99.90
17619;DHT22;8928;51.678;6.074;2023-02-11T02:33:10;6.10;99.90
17619;DHT22;8928;51.678;6.074;2023-02-11T02:36:06;6.10;99.90
17619;DHT22;8928;51.678;6.074;2023-02-11T02:38:59;6.10;99.90
17619;DHT22;8928;51.678;6.074;2023-02-11T02:41:48;6.10;99.90
17619;DHT22;8928;51.678;6.074;2023-02-11T02:44:36;6.10;99.90
17619;DHT22;8928;51.678;6.074;2023-02-11T02:47:23;6.10;99.90
17619;DHT22;8928;51.678;6.074;2023-02-11T02:50:14;6.10;99.90
17619;DHT22;8928;51.678;6.074;2023-02-11T02:53:16;6.10;99.90
17619;DHT22;8928;51.678;6.074;2023-02-11T02:56:08;6.10;99.90
17619;DHT22;8928;51.678;6.074;2023-02-11T03:02:21;6.10;99.90
17619;DHT22;8928;51.678;6.074;2023-02-11T03:05:15;6.10;99.90
17619;DHT22;8928;51.678;6.074;2023-02-11T03:08:07;6.10;99.90
17619;DHT22;8928;51.678;6.074;2023-02-11T03:10:55;6.10;99.90
17619;DHT22;8928;51.678;6.074;2023-02-11T03:13:45;6.10;99.90
17619;DHT22;8928;51.678;6.074;2023-02-11T03:16:35;6.10;99.90
17619;DHT22;8928;51.678;6.074;2023-02-11T03:19:25;6.10;99.90
17619;DHT22;8928;51.678;6.074;2023-02-11T03:22:18;6.10;99.90
17619;DHT22;8928;51.678;6.074;2023-02-11T03:25:06;6.00;99.90
17619;DHT22;8928;51.678;6.074;2023-02-11T03:27:58;6.00;99.90
17619;DHT22;8928;51.678;6.074;2023-02-11T03:30:54;6.00;99.90
17619;DHT22;8928;51.678;6.074;2023-02-11T03:33:50;5.90;99.90
17619;DHT22;8928;51.678;6.074;2023-02-11T03:36:43;5.90;99.90
17619;DHT22;8928;51.678;6.074;2023-02-11T03:39:35;5.90;99.90
17619;DHT22;8928;51.678;6.074;2023-02-11T03:42:27;5.90;99.90
17619;DHT22;8928;51.678;6.074;2023-02-11T03:45:17;5.90;99.90
17619;DHT22;8928;51.678;6.074;2023-02-11T03:48:10;5.80;99.90
17619;DHT22;8928;51.678;6.074;2023-02-11T03:51:00;5.80;99.90
17619;DHT22;8928;51.678;6.074;2023-02-11T03:53:50;5.90;99.90
17619;DHT22;8928;51.678;6.074;2023-02-11T03:56:43;5.90;99.90
17619;DHT22;8928;51.678;6.074;2023-02-11T03:59:48;5.90;99.90
17619;DHT22;8928;51.678;6.074;2023-02-11T04:02:37;5.90;99.90
17619;DHT22;8928;51.678;6.074;2023-02-11T04:05:24;5.80;99.90
17619;DHT22;8928;51.678;6.074;2023-02-11T04:08:11;5.90;99.90
17619;DHT22;8928;51.678;6.074;2023-02-11T04:10:59;5.90;99.90
17619;DHT22;8928;51.678;6.074;2023-02-11T04:13:47;5.80;99.90
17619;DHT22;8928;51.678;6.074;2023-02-11T04:16:34;5.90;99.90
17619;DHT22;8928;51.678;6.074;2023-02-11T04:19:21;5.90;99.90
17619;DHT22;8928;51.678;6.074;2023-02-11T04:22:08;5.90;99.90
17619;DHT22;8928;51.678;6.074;2023-02-11T04:24:55;5.90;99.90
17619;DHT22;8928;51.678;6.074;2023-02-11T04:27:42;5.90;99.90
17619;DHT22;8928;51.678;6.074;2023-02-11T04:30:30;5.90;99.90
17619;DHT22;8928;51.678;6.074;2023-02-11T04:33:17;5.90;99.90
17619;DHT22;8928;51.678;6.074;2023-02-11T04:36:05;5.90;99.90
17619;DHT22;8928;51.678;6.074;2023-02-11T04:38:52;6.00;99.90
17619;DHT22;8928;51.678;6.074;2023-02-11T04:41:39;5.90;99.90
17619;DHT22;8928;51.678;6.074;2023-02-11T04:44:26;6.00;99.90
17619;DHT22;8928;51.678;6.074;2023-02-11T04:47:15;6.00;99.90
17619;DHT22;8928;51.678;6.074;2023-02-11T04:50:02;6.00;99.90
17619;DHT22;8928;51.678;6.074;2023-02-11T04:52:49;6.00;99.90
17619;DHT22;8928;51.678;6.074;2023-02-11T04:55:36;6.00;99.90
17619;DHT22;8928;51.678;6.074;2023-02-11T04:58:23;6.00;99.90
17619;DHT22;8928;51.678;6.074;2023-02-11T05:01:12;6.00;99.90
17619;DHT22;8928;51.678;6.074;2023-02-11T05:04:01;6.00;99.90
17619;DHT22;8928;51.678;6.074;2023-02-11T05:06:48;6.00;99.90
17619;DHT22;8928;51.678;6.074;2023-02-11T05:09:35;6.00;99.90
17619;DHT22;8928;51.678;6.074;2023-02-11T05:12:22;6.00;99.90
17619;DHT22;8928;51.678;6.074;2023-02-11T05:15:09;5.90;99.90
17619;DHT22;8928;51.678;6.074;2023-02-11T05:17:56;6.00;99.90
17619;DHT22;8928;51.678;6.074;2023-02-11T05:20:44;6.00;99.90
17619;DHT22;8928;51.678;6.074;2023-02-11T05:23:31;5.90;99.90
17619;DHT22;8928;51.678;6.074;2023-02-11T05:26:19;6.00;99.90
17619;DHT22;8928;51.678;6.074;2023-02-11T05:29:06;6.00;99.90
17619;DHT22;8928;51.678;6.074;2023-02-11T05:31:53;6.00;99.90
17619;DHT22;8928;51.678;6.074;2023-02-11T05:34:40;6.00;99.90
17619;DHT22;8928;51.678;6.074;2023-02-11T05:37:28;5.90;99.90
17619;DHT22;8928;51.678;6.074;2023-02-11T05:40:15;6.00;99.90
17619;DHT22;8928;51.678;6.074;2023-02-11T05:43:02;6.00;99.90
17619;DHT22;8928;51.678;6.074;2023-02-11T05:45:49;6.00;99.90
17619;DHT22;8928;51.678;6.074;2023-02-11T05:48:36;6.00;99.90
17619;DHT22;8928;51.678;6.074;2023-02-11T05:51:23;6.00;99.90
17619;DHT22;8928;51.678;6.074;2023-02-11T05:54:12;6.10;99.90
17619;DHT22;8928;51.678;6.074;2023-02-11T05:56:59;6.00;99.90
17619;DHT22;8928;51.678;6.074;2023-02-11T05:59:46;6.00;99.90
17619;DHT22;8928;51.678;6.074;2023-02-11T06:02:33;6.10;99.90
17619;DHT22;8928;51.678;6.074;2023-02-11T06:05:20;6.10;99.90
17619;DHT22;8928;51.678;6.074;2023-02-11T06:08:07;6.00;99.90
17619;DHT22;8928;51.678;6.074;2023-02-11T06:10:55;6.00;99.90
17619;DHT22;8928;51.678;6.074;2023-02-11T06:13:43;6.10;99.90
17619;DHT22;8928;51.678;6.074;2023-02-11T06:16:30;6.10;99.90
17619;DHT22;8928;51.678;6.074;2023-02-11T06:19:17;6.10;99.90
17619;DHT22;8928;51.678;6.074;2023-02-11T06:22:04;6.10;99.90
17619;DHT22;8928;51.678;6.074;2023-02-11T06:24:51;6.10;99.90
17619;DHT22;8928;51.678;6.074;2023-02-11T06:27:39;6.10;99.90
17619;DHT22;8928;51.678;6.074;2023-02-11T06:30:26;6.10;99.90
17619;DHT22;8928;51.678;6.074;2023-02-11T06:33:14;6.10;99.90
17619;DHT22;8928;51.678;6.074;2023-02-11T06:36:03;6.10;99.90
17619;DHT22;8928;51.678;6.074;2023-02-11T06:38:51;6.20;99.90
17619;DHT22;8928;51.678;6.074;2023-02-11T06:41:38;6.20;99.90
17619;DHT22;8928;51.678;6.074;2023-02-11T06:44:27;6.20;99.90
17619;DHT22;8928;51.678;6.074;2023-02-11T06:47:14;6.20;99.90
17619;DHT22;8928;51.678;6.074;2023-02-11T06:50:01;6.20;99.90
17619;DHT22;8928;51.678;6.074;2023-02-11T06:52:49;6.20;99.90
17619;DHT22;8928;51.678;6.074;2023-02-11T06:55:36;6.10;99.90
17619;DHT22;8928;51.678;6.074;2023-02-11T06:58:23;6.20;99.90
17619;DHT22;8928;51.678;6.074;2023-02-11T07:01:13;6.20;99.90
17619;DHT22;8928;51.678;6.074;2023-02-11T07:04:00;6.20;99.90
17619;DHT22;8928;51.678;6.074;2023-02-11T07:06:47;6.20;99.90
17619;DHT22;8928;51.678;6.074;2023-02-11T07:09:34;6.20;99.90
17619;DHT22;8928;51.678;6.074;2023-02-11T07:12:21;6.20;99.90
17619;DHT22;8928;51.678;6.074;2023-02-11T07:15:08;6.20;99.90
17619;DHT22;8928;51.678;6.074;2023-02-11T07:17:57;6.20;99.90
17619;DHT22;8928;51.678;6.074;2023-02-11T07:20:44;6.20;99.90
17619;DHT22;8928;51.678;6.074;2023-02-11T07:23:31;6.20;99.90
17619;DHT22;8928;51.678;6.074;2023-02-11T07:26:20;6.30;99.90
17619;DHT22;8928;51.678;6.074;2023-02-11T07:29:07;6.30;99.90
17619;DHT22;8928;51.678;6.074;2023-02-11T07:31:54;6.30;99.90
17619;DHT22;8928;51.678;6.074;2023-02-11T07:34:43;6.30;99.90
17619;DHT22;8928;51.678;6.074;2023-02-11T07:37:32;6.30;99.90
17619;DHT22;8928;51.678;6.074;2023-02-11T07:40:19;6.30;99.90
17619;DHT22;8928;51.678;6.074;2023-02-11T07:43:06;6.40;99.90
17619;DHT22;8928;51.678;6.074;2023-02-11T07:45:54;6.40;99.90
17619;DHT22;8928;51.678;6.074;2023-02-11T07:48:41;6.40;99.90
17619;DHT22;8928;51.678;6.074;2023-02-11T07:51:30;6.40;99.90
17619;DHT22;8928;51.678;6.074;2023-02-11T07:54:17;6.40;99.90
17619;DHT22;8928;51.678;6.074;2023-02-11T07:57:04;6.50;99.90
17619;DHT22;8928;51.678;6.074;2023-02-11T07:59:52;6.50;99.90
17619;DHT22;8928;51.678;6.074;2023-02-11T08:02:39;6.50;99.90
17619;DHT22;8928;51.678;6.074;2023-02-11T08:05:26;6.50;99.90
17619;DHT22;8928;51.678;6.074;2023-02-11T08:08:14;6.60;99.90
17619;DHT22;8928;51.678;6.074;2023-02-11T08:11:05;6.60;99.90
17619;DHT22;8928;51.678;6.074;2023-02-11T08:13:54;6.60;99.90
17619;DHT22;8928;51.678;6.074;2023-02-11T08:16:41;6.60;99.90
17619;DHT22;8928;51.678;6.074;2023-02-11T08:19:28;6.70;99.90
17619;DHT22;8928;51.678;6.074;2023-02-11T08:22:15;6.70;99.90
17619;DHT22;8928;51.678;6.074;2023-02-11T08:25:05;6.70;99.90
17619;DHT22;8928;51.678;6.074;2023-02-11T08:27:52;6.70;99.90
17619;DHT22;8928;51.678;6.074;2023-02-11T08:30:39;6.80;99.90
17619;DHT22;8928;51.678;6.074;2023-02-11T08:33:26;6.80;99.90
17619;DHT22;8928;51.678;6.074;2023-02-11T08:36:16;6.80;99.90
17619;DHT22;8928;51.678;6.074;2023-02-11T08:39:07;6.90;99.90
17619;DHT22;8928;51.678;6.074;2023-02-11T08:41:58;6.90;99.90
17619;DHT22;8928;51.678;6.074;2023-02-11T08:44:45;6.90;99.90
17619;DHT22;8928;51.678;6.074;2023-02-11T08:47:32;6.90;99.90
17619;DHT22;8928;51.678;6.074;2023-02-11T08:50:19;7.00;99.90
17619;DHT22;8928;51.678;6.074;2023-02-11T08:53:06;7.00;99.90
17619;DHT22;8928;51.678;6.074;2023-02-11T08:55:55;7.00;99.90
17619;DHT22;8928;51.678;6.074;2023-02-11T08:58:44;7.10;99.90
17619;DHT22;8928;51.678;6.074;2023-02-11T09:01:31;7.10;99.90
17619;DHT22;8928;51.678;6.074;2023-02-11T09:04:18;7.10;99.90
17619;DHT22;8928;51.678;6.074;2023-02-11T09:07:05;7.10;99.90
17619;DHT22;8928;51.678;6.074;2023-02-11T09:09:52;7.10;99.90
17619;DHT22;8928;51.678;6.074;2023-02-11T09:12:39;7.20;99.90
17619;DHT22;8928;51.678;6.074;2023-02-11T09:15:28;7.30;99.90
17619;DHT22;8928;51.678;6.074;2023-02-11T09:18:15;7.30;99.90
17619;DHT22;8928;51.678;6.074;2023-02-11T09:21:03;7.30;99.90
17619;DHT22;8928;51.678;6.074;2023-02-11T09:23:51;7.40;99.90
17619;DHT22;8928;51.678;6.074;2023-02-11T09:26:41;7.40;99.90
17619;DHT22;8928;51.678;6.074;2023-02-11T09:29:28;7.50;99.90
17619;DHT22;8928;51.678;6.074;2023-02-11T09:32:16;7.60;99.90
17619;DHT22;8928;51.678;6.074;2023-02-11T09:35:04;7.60;99.90
17619;DHT22;8928;51.678;6.074;2023-02-11T09:37:51;7.70;99.90
17619;DHT22;8928;51.678;6.074;2023-02-11T09:40:41;7.70;99.90
17619;DHT22;8928;51.678;6.074;2023-02-11T09:43:34;7.80;99.90
17619;DHT22;8928;51.678;6.074;2023-02-11T09:46:23;7.90;99.90
17619;DHT22;8928;51.678;6.074;2023-02-11T09:49:17;8.00;99.90
17619;DHT22;8928;51.678;6.074;2023-02-11T09:52:10;8.10;99.90
17619;DHT22;8928;51.678;6.074;2023-02-11T09:54:59;8.10;99.90
17619;DHT22;8928;51.678;6.074;2023-02-11T09:57:48;8.20;99.90
17619;DHT22;8928;51.678;6.074;2023-02-11T10:00:37;8.10;99.90
17619;DHT22;8928;51.678;6.074;2023-02-11T10:03:46;8.10;99.90
17619;DHT22;8928;51.678;6.074;2023-02-11T10:06:39;8.20;99.90
17619;DHT22;8928;51.678;6.074;2023-02-11T10:09:59;8.30;99.90
17619;DHT22;8928;51.678;6.074;2023-02-11T10:13:01;8.40;99.90
17619;DHT22;8928;51.678;6.074;2023-02-11T10:15:58;8.40;99.90
17619;DHT22;8928;51.678;6.074;2023-02-11T10:19:01;8.40;99.90
17619;DHT22;8928;51.678;6.074;2023-02-11T10:22:05;8.60;99.90
17619;DHT22;8928;51.678;6.074;2023-02-11T10:24:54;8.70;99.90
17619;DHT22;8928;51.678;6.074;2023-02-11T10:27:43;8.70;99.90
17619;DHT22;8928;51.678;6.074;2023-02-11T10:30:32;8.60;99.90
17619;DHT22;8928;51.678;6.074;2023-02-11T10:33:24;8.60;99.90
17619;DHT22;8928;51.678;6.074;2023-02-11T10:36:14;8.60;99.90
17619;DHT22;8928;51.678;6.074;2023-02-11T10:39:10;8.70;99.90
17619;DHT22;8928;51.678;6.074;2023-02-11T10:42:00;8.80;99.90
17619;DHT22;8928;51.678;6.074;2023-02-11T10:44:55;8.70;99.90
17619;DHT22;8928;51.678;6.074;2023-02-11T10:47:43;8.70;99.90
17619;DHT22;8928;51.678;6.074;2023-02-11T10:50:31;8.70;99.90
17619;DHT22;8928;51.678;6.074;2023-02-11T10:53:20;8.80;99.90
17619;DHT22;8928;51.678;6.074;2023-02-11T10:56:13;8.80;99.90
17619;DHT22;8928;51.678;6.074;2023-02-11T10:59:14;8.90;99.90
17619;DHT22;8928;51.678;6.074;2023-02-11T11:02:04;8.90;99.90
17619;DHT22;8928;51.678;6.074;2023-02-11T11:05:06;9.00;99.90
17619;DHT22;8928;51.678;6.074;2023-02-11T11:08:03;9.00;99.90
17619;DHT22;8928;51.678;6.074;2023-02-11T11:11:02;9.00;99.90
17619;DHT22;8928;51.678;6.074;2023-02-11T11:13:56;9.00;99.90
17619;DHT22;8928;51.678;6.074;2023-02-11T11:16:51;9.10;99.90
17619;DHT22;8928;51.678;6.074;2023-02-11T11:19:38;9.10;99.90
17619;DHT22;8928;51.678;6.074;2023-02-11T11:22:25;9.00;99.90
17619;DHT22;8928;51.678;6.074;2023-02-11T11:25:24;9.10;99.90
17619;DHT22;8928;51.678;6.074;2023-02-11T11:28:21;9.20;99.90
17619;DHT22;8928;51.678;6.074;2023-02-11T11:31:15;9.30;99.90
17619;DHT22;8928;51.678;6.074;2023-02-11T11:34:19;9.40;99.90
17619;DHT22;8928;51.678;6.074;2023-02-11T11:37:12;9.50;99.90
17619;DHT22;8928;51.678;6.074;2023-02-11T11:40:06;9.50;99.90
17619;DHT22;8928;51.678;6.074;2023-02-11T11:43:06;9.60;99.90
17619;DHT22;8928;51.678;6.074;2023-02-11T11:46:00;9.80;99.90
17619;DHT22;8928;51.678;6.074;2023-02-11T11:48:54;9.90;99.90
17619;DHT22;8928;51.678;6.074;2023-02-11T11:51:50;10.10;99.90
17619;DHT22;8928;51.678;6.074;2023-02-11T11:54:37;10.00;99.90
17619;DHT22;8928;51.678;6.074;2023-02-11T11:57:27;10.10;99.90
17619;DHT22;8928;51.678;6.074;2023-02-11T12:00:18;10.00;99.90
17619;DHT22;8928;51.678;6.074;2023-02-11T12:03:51;9.70;99.90
17619;DHT22;8928;51.678;6.074;2023-02-11T12:06:53;9.70;99.90
17619;DHT22;8928;51.678;6.074;2023-02-11T12:09:50;9.50;99.90
17619;DHT22;8928;51.678;6.074;2023-02-11T12:12:44;9.50;99.90
17619;DHT22;8928;51.678;6.074;2023-02-11T12:15:40;9.60;99.90
17619;DHT22;8928;51.678;6.074;2023-02-11T12:18:40;9.60;99.90
17619;DHT22;8928;51.678;6.074;2023-02-11T12:21:38;9.60;99.90
17619;DHT22;8928;51.678;6.074;2023-02-11T12:24:43;9.50;99.90
17619;DHT22;8928;51.678;6.074;2023-02-11T12:27:43;9.60;99.90
17619;DHT22;8928;51.678;6.074;2023-02-11T12:30:58;9.80;99.90
17619;DHT22;8928;51.678;6.074;2023-02-11T12:34:03;10.20;99.90
17619;DHT22;8928;51.678;6.074;2023-02-11T12:37:01;10.40;99.90
17619;DHT22;8928;51.678;6.074;2023-02-11T12:39:53;10.40;99.90
17619;DHT22;8928;51.678;6.074;2023-02-11T12:42:50;10.30;99.90
17619;DHT22;8928;51.678;6.074;2023-02-11T12:52:54;11.20;99.90
17619;DHT22;8928;51.678;6.074;2023-02-11T12:55:52;11.40;99.90
17619;DHT22;8928;51.678;6.074;2023-02-11T12:58:41;11.40;99.90
17619;DHT22;8928;51.678;6.074;2023-02-11T13:01:33;11.30;99.90
17619;DHT22;8928;51.678;6.074;2023-02-11T13:04:25;11.10;99.90
17619;DHT22;8928;51.678;6.074;2023-02-11T13:07:19;10.80;99.90
17619;DHT22;8928;51.678;6.074;2023-02-11T13:10:21;10.60;99.90
17619;DHT22;8928;51.678;6.074;2023-02-11T13:13:15;10.50;99.90
17619;DHT22;8928;51.678;6.074;2023-02-11T13:16:06;10.60;99.90
17619;DHT22;8928;51.678;6.074;2023-02-11T13:19:03;10.80;99.90
17619;DHT22;8928;51.678;6.074;2023-02-11T13:22:04;11.10;99.90
17619;DHT22;8928;51.678;6.074;2023-02-11T13:24:55;11.50;99.90
17619;DHT22;8928;51.678;6.074;2023-02-11T13:27:49;11.80;99.90
17619;DHT22;8928;51.678;6.074;2023-02-11T13:30:45;11.90;99.90
17619;DHT22;8928;51.678;6.074;2023-02-11T13:33:37;12.00;99.90
17619;DHT22;8928;51.678;6.074;2023-02-11T13:36:28;11.80;99.90
17619;DHT22;8928;51.678;6.074;2023-02-11T13:39:19;11.50;99.90
17619;DHT22;8928;51.678;6.074;2023-02-11T13:42:14;11.10;99.90
17619;DHT22;8928;51.678;6.074;2023-02-11T13:45:16;10.90;99.90
17619;DHT22;8928;51.678;6.074;2023-02-11T13:48:06;10.70;99.90
17619;DHT22;8928;51.678;6.074;2023-02-11T13:51:04;10.50;99.90
17619;DHT22;8928;51.678;6.074;2023-02-11T13:53:54;10.50;99.90
17619;DHT22;8928;51.678;6.074;2023-02-11T13:56:42;10.50;99.90
17619;DHT22;8928;51.678;6.074;2023-02-11T13:59:44;10.50;99.90
17619;DHT22;8928;51.678;6.074;2023-02-11T14:02:33;10.60;99.90
17619;DHT22;8928;51.678;6.074;2023-02-11T14:06:09;10.80;99.90
17619;DHT22;8928;51.678;6.074;2023-02-11T14:09:35;10.70;99.90
17619;DHT22;8928;51.678;6.074;2023-02-11T14:12:33;10.70;99.90
17619;DHT22;8928;51.678;6.074;2023-02-11T14:15:37;10.70;99.90
17619;DHT22;8928;51.678;6.074;2023-02-11T14:18:57;10.70;99.90
17619;DHT22;8928;51.678;6.074;2023-02-11T14:21:45;10.90;99.90
17619;DHT22;8928;51.678;6.074;2023-02-11T14:24:45;11.10;99.90
17619;DHT22;8928;51.678;6.074;2023-02-11T14:27:37;11.10;99.90
17619;DHT22;8928;51.678;6.074;2023-02-11T14:30:33;11.10;99.90
17619;DHT22;8928;51.678;6.074;2023-02-11T14:37:15;11.30;99.90
17619;DHT22;8928;51.678;6.074;2023-02-11T14:40:12;11.20;99.90
17619;DHT22;8928;51.678;6.074;2023-02-11T14:43:09;11.20;99.90
17619;DHT22;8928;51.678;6.074;2023-02-11T14:46:00;11.00;99.90
17619;DHT22;8928;51.678;6.074;2023-02-11T14:48:50;11.00;99.90
17619;DHT22;8928;51.678;6.074;2023-02-11T14:51:39;10.90;99.90
17619;DHT22;8928;51.678;6.074;2023-02-11T14:54:28;10.90;99.90
17619;DHT22;8928;51.678;6.074;2023-02-11T14:57:18;10.70;99.90
17619;DHT22;8928;51.678;6.074;2023-02-11T15:00:19;10.70;99.90
17619;DHT22;8928;51.678;6.074;2023-02-11T15:03:26;10.70;99.90
17619;DHT22;8928;51.678;6.074;2023-02-11T15:06:17;10.60;99.90
17619;DHT22;8928;51.678;6.074;2023-02-11T15:09:13;10.50;99.90
17619;DHT22;8928;51.678;6.074;2023-02-11T15:12:03;10.40;99.90
17619;DHT22;8928;51.678;6.074;2023-02-11T15:14:52;10.40;99.90
17619;DHT22;8928;51.678;6.074;2023-02-11T15:17:41;10.30;99.90
17619;DHT22;8928;51.678;6.074;2023-02-11T15:20:30;10.30;99.90
17619;DHT22;8928;51.678;6.074;2023-02-11T15:23:22;10.20;99.90
17619;DHT22;8928;51.678;6.074;2023-02-11T15:26:13;10.10;99.90
17619;DHT22;8928;51.678;6.074;2023-02-11T15:29:01;10.10;99.90
17619;DHT22;8928;51.678;6.074;2023-02-11T15:32:02;10.00;99.90
17619;DHT22;8928;51.678;6.074;2023-02-11T15:34:51;10.00;99.90
17619;DHT22;8928;51.678;6.074;2023-02-11T15:37:42;9.90;99.90
17619;DHT22;8928;51.678;6.074;2023-02-11T15:40:31;9.90;99.90
17619;DHT22;8928;51.678;6.074;2023-02-11T15:43:18;9.90;99.90
17619;DHT22;8928;51.678;6.074;2023-02-11T15:46:07;9.70;99.90
17619;DHT22;8928;51.678;6.074;2023-02-11T15:48:55;9.80;99.90
17619;DHT22;8928;51.678;6.074;2023-02-11T15:51:44;9.80;99.90
17619;DHT22;8928;51.678;6.074;2023-02-11T15:54:31;9.70;99.90
17619;DHT22;8928;51.678;6.074;2023-02-11T15:57:20;9.60;99.90
17619;DHT22;8928;51.678;6.074;2023-02-11T16:00:15;9.60;99.90
17619;DHT22;8928;51.678;6.074;2023-02-11T16:03:04;9.60;99.90
17619;DHT22;8928;51.678;6.074;2023-02-11T16:05:51;9.60;99.90
17619;DHT22;8928;51.678;6.074;2023-02-11T16:08:40;9.50;99.90
17619;DHT22;8928;51.678;6.074;2023-02-11T16:11:29;9.50;99.90
17619;DHT22;8928;51.678;6.074;2023-02-11T16:14:21;9.40;99.90
17619;DHT22;8928;51.678;6.074;2023-02-11T16:17:12;9.40;99.90
17619;DHT22;8928;51.678;6.074;2023-02-11T16:20:18;9.20;99.90
17619;DHT22;8928;51.678;6.074;2023-02-11T16:23:06;9.10;99.90
17619;DHT22;8928;51.678;6.074;2023-02-11T16:25:57;8.90;99.90
17619;DHT22;8928;51.678;6.074;2023-02-11T16:28:45;8.80;99.90
17619;DHT22;8928;51.678;6.074;2023-02-11T16:31:34;8.70;99.90
17619;DHT22;8928;51.678;6.074;2023-02-11T16:34:23;8.60;99.90
17619;DHT22;8928;51.678;6.074;2023-02-11T16:37:12;8.50;99.90
17619;DHT22;8928;51.678;6.074;2023-02-11T16:39:59;8.40;99.90
17619;DHT22;8928;51.678;6.074;2023-02-11T16:42:46;8.20;99.90
17619;DHT22;8928;51.678;6.074;2023-02-11T16:45:36;8.20;99.90
17619;DHT22;8928;51.678;6.074;2023-02-11T16:48:23;8.10;99.90
17619;DHT22;8928;51.678;6.074;2023-02-11T16:51:11;8.00;99.90
17619;DHT22;8928;51.678;6.074;2023-02-11T16:53:59;8.00;99.90
17619;DHT22;8928;51.678;6.074;2023-02-11T16:56:47;8.00;99.90
17619;DHT22;8928;51.678;6.074;2023-02-11T16:59:34;7.90;99.90
17619;DHT22;8928;51.678;6.074;2023-02-11T17:02:23;7.90;99.90
17619;DHT22;8928;51.678;6.074;2023-02-11T17:05:16;7.80;99.90
17619;DHT22;8928;51.678;6.074;2023-02-11T17:08:04;7.60;99.90
17619;DHT22;8928;51.678;6.074;2023-02-11T17:10:52;7.50;99.90
17619;DHT22;8928;51.678;6.074;2023-02-11T17:13:39;7.30;99.90
17619;DHT22;8928;51.678;6.074;2023-02-11T17:16:27;7.20;99.90
17619;DHT22;8928;51.678;6.074;2023-02-11T17:19:15;7.10;99.90
17619;DHT22;8928;51.678;6.074;2023-02-11T17:22:03;7.00;99.90
17619;DHT22;8928;51.678;6.074;2023-02-11T17:24:50;7.00;99.90
17619;DHT22;8928;51.678;6.074;2023-02-11T17:27:38;6.90;99.90
17619;DHT22;8928;51.678;6.074;2023-02-11T17:30:25;6.80;99.90
17619;DHT22;8928;51.678;6.074;2023-02-11T17:33:12;6.80;99.90
17619;DHT22;8928;51.678;6.074;2023-02-11T17:36:03;6.70;99.90
17619;DHT22;8928;51.678;6.074;2023-02-11T17:38:50;6.60;99.90
17619;DHT22;8928;51.678;6.074;2023-02-11T17:41:37;6.60;99.90
17619;DHT22;8928;51.678;6.074;2023-02-11T17:44:26;6.60;99.90
17619;DHT22;8928;51.678;6.074;2023-02-11T17:47:13;6.50;99.90
17619;DHT22;8928;51.678;6.074;2023-02-11T17:50:00;6.50;99.90
17619;DHT22;8928;51.678;6.074;2023-02-11T17:52:48;6.40;99.90
17619;DHT22;8928;51.678;6.074;2023-02-11T17:55:35;6.40;99.90
17619;DHT22;8928;51.678;6.074;2023-02-11T17:58:23;6.40;99.90
17619;DHT22;8928;51.678;6.074;2023-02-11T18:01:11;6.30;99.90
17619;DHT22;8928;51.678;6.074;2023-02-11T18:03:58;6.20;99.90
17619;DHT22;8928;51.678;6.074;2023-02-11T18:06:46;6.20;99.90
17619;DHT22;8928;51.678;6.074;2023-02-11T18:09:36;6.10;99.90
17619;DHT22;8928;51.678;6.074;2023-02-11T18:12:23;6.10;99.90
17619;DHT22;8928;51.678;6.074;2023-02-11T18:15:11;6.00;99.90
17619;DHT22;8928;51.678;6.074;2023-02-11T18:17:59;6.00;99.90
17619;DHT22;8928;51.678;6.074;2023-02-11T18:20:55;6.00;99.90
17619;DHT22;8928;51.678;6.074;2023-02-11T18:23:43;6.00;99.90
17619;DHT22;8928;51.678;6.074;2023-02-11T18:26:30;6.00;99.90
17619;DHT22;8928;51.678;6.074;2023-02-11T18:29:17;6.00;99.90
17619;DHT22;8928;51.678;6.074;2023-02-11T18:32:05;6.00;99.90
17619;DHT22;8928;51.678;6.074;2023-02-11T18:34:53;6.10;99.90
17619;DHT22;8928;51.678;6.074;2023-02-11T18:37:41;6.10;99.90
17619;DHT22;8928;51.678;6.074;2023-02-11T18:40:28;6.10;99.90
17619;DHT22;8928;51.678;6.074;2023-02-11T18:43:15;6.10;99.90
17619;DHT22;8928;51.678;6.074;2023-02-11T18:46:07;6.20;99.90
17619;DHT22;8928;51.678;6.074;2023-02-11T18:48:54;6.20;99.90